createdAt,value
2018-07-17T00:00:57.560Z,16.70
2018-07-17T00:03:25.725Z,16.70
2018-07-17T00:05:53.867Z,16.60
2018-07-17T00:08:21.998Z,16.70
2018-07-17T00:10:50.104Z,16.70
2018-07-17T00:13:18.300Z,16.70
2018-07-17T00:15:46.528Z,16.60
2018-07-17T00:18:14.592Z,16.50
2018-07-17T00:20:42.709Z,16.50
2018-07-17T00:23:10.830Z,16.50
2018-07-17T00:25:38.958Z,16.40
2018-07-17T00:28:07.196Z,16.40
2018-07-17T00:30:35.313Z,16.30
2018-07-17T00:35:31.292Z,16.20
2018-07-17T00:37:59.436Z,16.20
2018-07-17T00:40:27.532Z,16.20
2018-07-17T00:42:55.673Z,16.20
2018-07-17T00:45:23.799Z,16.20
2018-07-17T00:47:52.052Z,16.20
2018-07-17T00:50:20.551Z,16.20
2018-07-17T00:52:48.677Z,16.20
2018-07-17T00:55:16.808Z,16.20
2018-07-17T00:57:44.957Z,16.20
2018-07-17T01:02:46.432Z,16.30
2018-07-17T01:05:20.015Z,16.30
2018-07-17T01:07:53.715Z,16.40
2018-07-17T01:10:27.340Z,16.50
2018-07-17T01:12:54.853Z,16.60
2018-07-17T01:15:32.123Z,16.60
2018-07-17T01:18:00.269Z,16.60
2018-07-17T01:20:28.441Z,16.50
2018-07-17T01:22:56.600Z,16.50
2018-07-17T01:25:24.785Z,16.60
2018-07-17T01:27:52.893Z,16.60
2018-07-17T01:30:22.015Z,16.70
2018-07-17T01:32:50.198Z,16.80
2018-07-17T01:35:18.297Z,16.80
2018-07-17T01:37:46.423Z,16.80
2018-07-17T01:40:14.567Z,16.90
2018-07-17T01:42:42.648Z,16.90
2018-07-17T01:45:10.783Z,16.90
2018-07-17T01:47:38.914Z,16.90
2018-07-17T01:50:07.010Z,16.80
2018-07-17T01:52:35.246Z,16.80
2018-07-17T01:55:03.520Z,16.80
2018-07-17T01:57:31.638Z,16.80
2018-07-17T01:59:59.760Z,16.80
2018-07-17T02:02:27.868Z,16.80
2018-07-17T02:04:56.020Z,16.90
2018-07-17T02:07:24.286Z,16.90
2018-07-17T02:09:52.419Z,16.80
2018-07-17T02:12:20.565Z,16.80
2018-07-17T02:14:48.701Z,16.70
2018-07-17T02:17:16.844Z,16.70
2018-07-17T02:22:12.940Z,16.60
2018-07-17T02:24:41.076Z,16.50
2018-07-17T02:27:09.203Z,16.40
2018-07-17T02:29:37.326Z,16.40
2018-07-17T02:32:05.471Z,16.40
2018-07-17T02:34:33.574Z,16.40
2018-07-17T02:37:01.671Z,16.50
2018-07-17T02:39:29.854Z,16.50
2018-07-17T02:41:57.947Z,16.50
2018-07-17T02:44:26.072Z,16.50
2018-07-17T02:46:54.269Z,16.50
2018-07-17T02:49:22.359Z,16.60
2018-07-17T02:51:50.517Z,16.60
2018-07-17T02:54:18.605Z,16.70
2018-07-17T02:56:46.704Z,17.00
2018-07-17T02:59:14.790Z,17.20
2018-07-17T03:01:42.894Z,17.50
2018-07-17T03:04:10.968Z,17.70
2018-07-17T03:06:39.105Z,17.80
2018-07-17T03:09:07.622Z,17.80
2018-07-17T03:11:36.019Z,17.80
2018-07-17T03:14:04.244Z,17.80
2018-07-17T03:16:32.315Z,17.80
2018-07-17T03:19:00.397Z,17.90
2018-07-17T03:21:28.505Z,17.90
2018-07-17T03:23:56.668Z,17.80
2018-07-17T03:26:24.944Z,17.90
2018-07-17T03:28:53.115Z,17.80
2018-07-17T03:31:21.262Z,17.80
2018-07-17T03:33:49.369Z,17.80
2018-07-17T03:36:17.603Z,17.80
2018-07-17T03:38:45.690Z,17.80
2018-07-17T03:41:13.804Z,17.80
2018-07-17T03:43:41.965Z,17.80
2018-07-17T03:46:10.117Z,17.80
2018-07-17T03:48:38.242Z,17.80
2018-07-17T03:51:06.491Z,17.80
2018-07-17T03:53:34.634Z,17.90
2018-07-17T03:56:02.789Z,17.90
2018-07-17T03:58:30.909Z,18.00
2018-07-17T04:00:59.048Z,18.00
2018-07-17T04:05:55.102Z,18.20
2018-07-17T04:08:23.241Z,18.30
2018-07-17T04:10:51.351Z,18.40
2018-07-17T04:13:19.567Z,18.50
2018-07-17T04:15:47.742Z,18.50
2018-07-17T04:18:15.896Z,18.40
2018-07-17T04:20:44.012Z,18.20
2018-07-17T04:23:12.099Z,18.10
2018-07-17T04:30:36.124Z,17.80
2018-07-17T04:33:04.326Z,17.80
2018-07-17T04:35:32.445Z,17.80
2018-07-17T04:38:00.582Z,17.90
2018-07-17T04:40:28.703Z,18.00
2018-07-17T04:42:56.834Z,18.00
2018-07-17T04:45:25.069Z,18.10
2018-07-17T04:47:53.185Z,18.20
2018-07-17T04:50:21.282Z,18.30
2018-07-17T04:52:49.401Z,18.40
2018-07-17T04:55:17.519Z,18.50
2018-07-17T04:57:46.588Z,18.60
2018-07-17T05:00:14.744Z,18.70
2018-07-17T05:02:42.866Z,18.90
2018-07-17T05:05:10.983Z,19.00
2018-07-17T05:07:39.084Z,19.20
2018-07-17T05:10:07.464Z,19.30
2018-07-17T05:12:35.586Z,19.50
2018-07-17T05:15:03.930Z,19.60
2018-07-17T05:17:32.115Z,19.70
2018-07-17T05:20:00.189Z,19.80
2018-07-17T05:22:28.340Z,20.00
2018-07-17T05:24:56.518Z,20.10
2018-07-17T05:27:24.672Z,20.10
2018-07-17T05:29:52.930Z,20.30
2018-07-17T05:32:21.099Z,20.40
2018-07-17T05:34:49.190Z,20.60
2018-07-17T05:37:17.297Z,20.60
2018-07-17T05:39:45.541Z,20.70
2018-07-17T05:42:13.719Z,20.70
2018-07-17T05:44:41.859Z,20.70
2018-07-17T05:47:09.987Z,20.80
2018-07-17T05:49:38.147Z,20.70
2018-07-17T05:52:06.332Z,20.70
2018-07-17T05:54:34.453Z,20.60
2018-07-17T05:59:30.399Z,20.70
2018-07-17T06:01:58.495Z,20.80
2018-07-17T06:04:26.672Z,21.00
2018-07-17T06:06:54.759Z,21.20
2018-07-17T06:09:22.916Z,21.10
2018-07-17T06:11:51.070Z,21.10
2018-07-17T06:14:19.200Z,21.20
2018-07-17T06:16:47.287Z,21.30
2018-07-17T06:19:15.353Z,21.40
2018-07-17T06:21:43.576Z,21.50
2018-07-17T06:24:11.757Z,21.80
2018-07-17T06:26:39.894Z,22.00
2018-07-17T06:29:08.020Z,22.20
2018-07-17T06:31:36.126Z,22.20
2018-07-17T06:34:04.294Z,22.30
2018-07-17T06:36:32.587Z,22.40
2018-07-17T06:39:00.674Z,22.40
2018-07-17T06:41:28.814Z,22.50
2018-07-17T06:43:56.909Z,22.70
2018-07-17T06:48:52.935Z,23.10
2018-07-17T06:51:21.032Z,23.50
2018-07-17T06:53:49.140Z,23.60
2018-07-17T06:56:17.223Z,23.80
2018-07-17T06:58:45.334Z,23.70
2018-07-17T07:01:13.418Z,23.50
2018-07-17T07:03:41.578Z,23.40
2018-07-17T07:06:09.652Z,23.50
2018-07-17T07:08:37.830Z,23.50
2018-07-17T07:11:06.162Z,23.60
2018-07-17T07:13:34.255Z,23.60
2018-07-17T07:18:30.229Z,23.50
2018-07-17T07:20:58.415Z,23.50
2018-07-17T07:23:26.674Z,23.70
2018-07-17T07:25:54.749Z,23.80
2018-07-17T07:28:22.854Z,23.90
2018-07-17T07:30:51.057Z,23.90
2018-07-17T07:33:19.453Z,23.80
2018-07-17T07:35:47.651Z,23.90
2018-07-17T07:40:43.786Z,24.00
2018-07-17T07:43:11.937Z,24.10
2018-07-17T07:45:40.210Z,24.10
2018-07-17T07:48:08.393Z,23.90
2018-07-17T07:50:36.554Z,23.90
2018-07-17T07:55:32.689Z,24.20
2018-07-17T07:58:00.818Z,24.20
2018-07-17T08:00:28.941Z,24.20
2018-07-17T08:02:57.182Z,24.20
2018-07-17T08:05:25.279Z,24.20
2018-07-17T08:07:53.998Z,24.20
2018-07-17T08:10:22.190Z,24.00
2018-07-17T08:12:50.314Z,23.80
2018-07-17T08:15:18.472Z,23.70
2018-07-17T08:17:46.548Z,23.60
2018-07-17T08:20:14.686Z,23.60
2018-07-17T08:22:42.801Z,23.60
2018-07-17T08:25:10.916Z,23.70
2018-07-17T08:27:39.017Z,23.70
2018-07-17T08:30:07.193Z,23.70
2018-07-17T08:35:03.363Z,23.70
2018-07-17T08:37:31.545Z,23.70
2018-07-17T08:39:59.709Z,23.80
2018-07-17T08:42:27.844Z,24.00
2018-07-17T08:44:55.978Z,24.30
2018-07-17T08:47:24.085Z,24.60
2018-07-17T08:49:52.197Z,24.90
2018-07-17T08:52:20.323Z,25.30
2018-07-17T08:54:48.509Z,25.60
2018-07-17T08:57:16.640Z,25.80
2018-07-17T08:59:44.750Z,26.10
2018-07-17T09:02:12.918Z,26.10
2018-07-17T09:04:41.162Z,26.10
2018-07-17T09:07:09.296Z,26.30
2018-07-17T09:09:37.399Z,26.50
2018-07-17T09:12:05.544Z,26.10
2018-07-17T09:14:33.846Z,26.50
2018-07-17T09:17:02.091Z,26.80
2018-07-17T09:21:58.101Z,27.20
2018-07-17T09:24:26.364Z,27.70
2018-07-17T09:26:54.505Z,27.80
2018-07-17T09:29:22.877Z,27.40
2018-07-17T09:31:51.052Z,27.40
2018-07-17T09:34:19.199Z,27.50
2018-07-17T09:36:47.585Z,27.90
2018-07-17T09:39:15.709Z,27.70
2018-07-17T09:41:43.824Z,28.20
2018-07-17T09:44:11.969Z,27.80
2018-07-17T09:46:40.119Z,27.90
2018-07-17T09:49:08.239Z,28.00
2018-07-17T09:51:36.367Z,27.90
2018-07-17T09:54:04.531Z,28.20
2018-07-17T09:56:32.659Z,27.90
2018-07-17T09:59:00.778Z,27.50
2018-07-17T10:01:34.438Z,27.10
2018-07-17T10:04:02.631Z,27.20
2018-07-17T10:08:58.884Z,27.60
2018-07-17T10:11:27.029Z,27.30
2018-07-17T10:13:55.127Z,27.40
2018-07-17T10:16:23.264Z,27.10
2018-07-17T10:18:51.399Z,27.10
2018-07-17T10:21:19.506Z,27.10
2018-07-17T10:23:47.639Z,27.30
2018-07-17T10:26:15.902Z,27.20
2018-07-17T10:31:11.928Z,27.50
2018-07-17T10:33:40.042Z,27.80
2018-07-17T10:36:08.182Z,27.70
2018-07-17T10:41:04.255Z,28.00
2018-07-17T10:43:32.342Z,27.90
2018-07-17T10:46:00.784Z,27.50
2018-07-17T10:48:28.862Z,27.40
2018-07-17T10:50:56.966Z,27.10
2018-07-17T10:53:25.109Z,27.10
2018-07-17T10:55:53.349Z,27.10
2018-07-17T10:58:21.510Z,27.40
2018-07-17T11:00:49.661Z,27.50
2018-07-17T11:03:17.787Z,27.40
2018-07-17T11:05:45.906Z,27.10
2018-07-17T11:08:14.025Z,26.80
2018-07-17T11:10:42.208Z,26.60
2018-07-17T11:13:10.964Z,26.20
2018-07-17T11:15:39.064Z,25.80
2018-07-17T11:18:07.239Z,25.60
2018-07-17T11:23:03.302Z,25.00
2018-07-17T11:25:31.415Z,24.90
2018-07-17T11:27:59.515Z,24.90
2018-07-17T11:30:27.715Z,24.70
2018-07-17T11:35:23.749Z,24.30
2018-07-17T11:37:51.882Z,24.20
2018-07-17T11:40:20.010Z,24.10
2018-07-17T11:42:48.150Z,24.10
2018-07-17T11:45:16.352Z,24.00
2018-07-17T11:47:44.504Z,24.10
2018-07-17T11:50:12.659Z,23.90
2018-07-17T11:52:40.804Z,23.80
2018-07-17T11:55:08.886Z,23.70
2018-07-17T11:57:37.061Z,23.80
2018-07-17T12:00:06.200Z,23.80
2018-07-17T12:02:34.381Z,23.80
2018-07-17T12:09:58.598Z,23.50
2018-07-17T12:12:26.837Z,23.50
2018-07-17T12:14:54.948Z,23.50
2018-07-17T12:19:51.016Z,23.60
2018-07-17T12:22:19.090Z,23.70
2018-07-17T12:24:47.306Z,23.80
2018-07-17T12:27:15.497Z,23.80
2018-07-17T12:29:43.651Z,24.10
2018-07-17T12:32:11.800Z,23.90
2018-07-17T12:34:39.959Z,24.00
2018-07-17T12:37:08.176Z,24.00
2018-07-17T12:39:36.280Z,24.10
2018-07-17T12:42:04.416Z,24.10
2018-07-17T12:44:32.588Z,24.30
2018-07-17T12:47:00.824Z,24.10
2018-07-17T12:49:28.958Z,24.10
2018-07-17T12:51:57.070Z,24.40
2018-07-17T12:54:25.309Z,24.40
2018-07-17T12:56:53.505Z,24.30
2018-07-17T13:01:49.646Z,24.60
2018-07-17T13:04:17.854Z,24.70
2018-07-17T13:06:45.984Z,24.80
2018-07-17T13:09:14.612Z,25.00
2018-07-17T13:14:10.601Z,25.00
2018-07-17T13:19:06.680Z,25.10
2018-07-17T13:21:34.831Z,25.10
2018-07-17T13:24:03.067Z,25.40
2018-07-17T13:26:31.197Z,25.50
2018-07-17T13:28:59.349Z,25.50
2018-07-17T13:31:27.568Z,25.80
2018-07-17T13:33:55.738Z,26.40
2018-07-17T13:36:23.945Z,26.80
2018-07-17T13:38:52.071Z,26.90
2018-07-17T13:41:20.297Z,26.80
2018-07-17T13:43:48.493Z,26.70
2018-07-17T13:46:16.717Z,26.60
2018-07-17T13:48:44.918Z,26.90
2018-07-17T13:51:13.085Z,27.20
2018-07-17T13:53:41.244Z,27.30
2018-07-17T13:56:09.411Z,27.50
2018-07-17T13:58:37.617Z,27.80
2018-07-17T14:01:05.879Z,27.90
2018-07-17T14:03:34.095Z,28.10
2018-07-17T14:06:02.862Z,28.30
2018-07-17T14:08:31.081Z,28.30
2018-07-17T14:10:59.258Z,28.10
2018-07-17T14:13:27.518Z,28.20
2018-07-17T14:15:55.729Z,28.00
2018-07-17T14:18:23.863Z,28.00
2018-07-17T14:20:52.135Z,28.00
2018-07-17T14:23:20.310Z,28.10
2018-07-17T14:25:48.466Z,28.10
2018-07-17T14:28:16.782Z,28.30
2018-07-17T14:30:44.957Z,28.30
2018-07-17T14:35:41.106Z,28.30
2018-07-17T14:38:09.324Z,28.40
2018-07-17T14:40:37.469Z,28.40
2018-07-17T14:43:05.984Z,28.10
2018-07-17T14:45:34.149Z,28.00
2018-07-17T14:48:02.322Z,27.90
2018-07-17T14:50:31.204Z,28.00
2018-07-17T14:52:59.394Z,27.80
2018-07-17T14:55:27.551Z,27.80
2018-07-17T14:57:55.715Z,27.80
2018-07-17T15:00:23.915Z,27.70
2018-07-17T15:02:52.132Z,27.80
2018-07-17T15:07:48.889Z,27.70
2018-07-17T15:10:17.084Z,27.80
2018-07-17T15:12:45.237Z,27.80
2018-07-17T15:15:13.493Z,27.90
2018-07-17T15:17:41.702Z,28.00
2018-07-17T15:20:09.845Z,27.90
2018-07-17T15:25:06.814Z,27.90
2018-07-17T15:27:34.981Z,27.90
2018-07-17T15:30:03.427Z,27.70
2018-07-17T15:32:31.578Z,27.60
2018-07-17T15:34:59.709Z,27.60
2018-07-17T15:39:55.876Z,27.60
2018-07-17T15:42:24.078Z,27.60
2018-07-17T15:44:52.231Z,27.70
2018-07-17T15:47:20.339Z,27.60
2018-07-17T15:49:48.472Z,27.50
2018-07-17T15:52:16.625Z,27.50
2018-07-17T15:57:13.022Z,27.20
2018-07-17T15:59:41.191Z,27.20
2018-07-17T16:02:09.367Z,27.10
2018-07-17T16:04:37.524Z,27.00
2018-07-17T16:09:33.616Z,26.90
2018-07-17T16:12:01.788Z,26.80
2018-07-17T16:14:30.150Z,26.90
2018-07-17T16:16:58.158Z,26.80
2018-07-17T16:19:26.329Z,26.80
2018-07-17T16:21:54.446Z,26.80
2018-07-17T16:24:22.552Z,26.70
2018-07-17T16:26:50.699Z,26.70
2018-07-17T16:29:18.843Z,26.60
2018-07-17T16:31:46.985Z,26.50
2018-07-17T16:34:15.120Z,26.50
2018-07-17T16:36:43.346Z,26.50
2018-07-17T16:39:11.477Z,26.40
2018-07-17T16:41:39.619Z,26.30
2018-07-17T16:44:07.756Z,26.40
2018-07-17T16:46:35.976Z,26.30
2018-07-17T16:51:32.104Z,26.20
2018-07-17T16:54:00.186Z,26.30
2018-07-17T16:58:56.268Z,26.10
2018-07-17T17:01:25.146Z,26.10
2018-07-17T17:03:54.275Z,25.90
2018-07-17T17:06:23.342Z,25.90
2018-07-17T17:08:53.271Z,25.80
2018-07-17T17:11:23.663Z,25.60
2018-07-17T17:13:52.744Z,25.60
2018-07-17T17:16:21.763Z,25.50
2018-07-17T17:18:51.156Z,25.40
2018-07-17T17:23:53.142Z,25.20
2018-07-17T17:28:51.506Z,25.00
2018-07-17T17:31:22.652Z,25.00
2018-07-17T17:33:52.258Z,24.90
2018-07-17T17:36:20.600Z,24.80
2018-07-17T17:38:48.850Z,24.80
2018-07-17T17:41:18.983Z,24.70
2018-07-17T17:43:48.017Z,24.60
2018-07-17T17:46:17.038Z,24.50
2018-07-17T17:48:45.857Z,24.40
2018-07-17T17:51:13.992Z,24.40
2018-07-17T17:53:43.172Z,24.30
2018-07-17T17:56:14.808Z,24.20
2018-07-17T17:58:47.330Z,24.10
2018-07-17T18:01:17.167Z,23.90
2018-07-17T18:03:49.871Z,23.70
2018-07-17T18:06:18.779Z,23.50
2018-07-17T18:08:50.354Z,23.40
2018-07-17T18:11:18.455Z,23.20
2018-07-17T18:13:47.653Z,23.20
2018-07-17T18:16:16.675Z,23.10
2018-07-17T18:18:44.907Z,23.00
2018-07-17T18:21:13.070Z,22.80
2018-07-17T18:23:41.156Z,22.70
2018-07-17T18:26:09.289Z,22.60
2018-07-17T18:28:37.482Z,22.50
2018-07-17T18:31:05.729Z,22.30
2018-07-17T18:33:33.912Z,22.30
2018-07-17T18:36:02.112Z,22.20
2018-07-17T18:38:30.242Z,22.10
2018-07-17T18:40:58.375Z,21.80
2018-07-17T18:43:26.509Z,21.60
2018-07-17T18:45:54.676Z,21.60
2018-07-17T18:48:22.891Z,21.50
2018-07-17T18:50:51.155Z,21.50
2018-07-17T18:53:19.432Z,21.40
2018-07-17T18:55:48.195Z,21.40
2018-07-17T18:58:16.350Z,21.30
2018-07-17T19:00:44.590Z,21.30
2018-07-17T19:03:12.725Z,21.10
2018-07-17T19:05:40.884Z,21.10
2018-07-17T19:08:09.027Z,21.20
2018-07-17T19:10:37.205Z,21.20
2018-07-17T19:13:05.459Z,21.30
2018-07-17T19:15:33.763Z,21.20
2018-07-17T19:18:01.993Z,21.20
2018-07-17T19:20:30.150Z,21.20
2018-07-17T19:22:58.301Z,21.10
2018-07-17T19:25:26.451Z,21.00
2018-07-17T19:30:22.464Z,20.90
2018-07-17T19:32:50.610Z,20.90
2018-07-17T19:35:18.798Z,20.80
2018-07-17T19:37:46.936Z,20.70
2018-07-17T19:40:15.083Z,20.70
2018-07-17T19:42:43.306Z,20.60
2018-07-17T19:45:11.506Z,20.60
2018-07-17T19:47:39.641Z,20.50
2018-07-17T19:50:08.110Z,20.50
2018-07-17T19:52:36.313Z,20.40
2018-07-17T19:55:04.996Z,20.30
2018-07-17T19:57:33.142Z,20.30
2018-07-17T20:00:01.287Z,20.30
2018-07-17T20:02:29.476Z,20.30
2018-07-17T20:04:57.688Z,20.20
2018-07-17T20:07:25.887Z,20.20
2018-07-17T20:09:54.036Z,20.20
2018-07-17T20:12:22.187Z,20.10
2018-07-17T20:14:51.195Z,20.10
2018-07-17T20:17:19.377Z,20.10
2018-07-17T20:19:47.493Z,20.20
2018-07-17T20:22:15.641Z,20.10
2018-07-17T20:24:43.767Z,20.20
2018-07-17T20:27:11.857Z,20.10
2018-07-17T20:29:39.998Z,20.20
2018-07-17T20:32:08.297Z,20.20
2018-07-17T20:34:36.527Z,20.10
2018-07-17T20:37:04.722Z,20.20
2018-07-17T20:39:32.841Z,20.20
2018-07-17T20:42:01.089Z,20.20
2018-07-17T20:44:29.307Z,20.20
2018-07-17T20:46:57.477Z,20.10
2018-07-17T20:49:25.639Z,20.10
2018-07-17T20:51:53.948Z,20.10
2018-07-17T20:54:22.090Z,20.20
2018-07-17T20:56:50.177Z,20.10
2018-07-17T20:59:18.325Z,20.10
2018-07-17T21:01:46.437Z,20.20
2018-07-17T21:04:14.572Z,20.30
2018-07-17T21:06:42.713Z,20.40
2018-07-17T21:09:11.604Z,20.50
2018-07-17T21:11:39.744Z,20.70
2018-07-17T21:14:07.882Z,20.90
2018-07-17T21:16:36.035Z,21.10
2018-07-17T21:19:04.334Z,21.40
2018-07-17T21:21:32.538Z,21.60
2018-07-17T21:24:00.638Z,21.70
2018-07-17T21:26:29.530Z,21.70
2018-07-17T21:28:57.641Z,21.90
2018-07-17T21:31:25.770Z,21.80
2018-07-17T21:36:21.860Z,21.90
2018-07-17T21:38:49.996Z,22.10
2018-07-17T21:41:18.116Z,22.00
2018-07-17T21:43:46.285Z,21.80
2018-07-17T21:46:14.504Z,21.80
2018-07-17T21:48:42.604Z,21.80
2018-07-17T21:51:10.677Z,21.80
2018-07-17T21:53:38.790Z,21.80
2018-07-17T21:56:06.953Z,21.80
2018-07-17T21:58:35.109Z,21.90
2018-07-17T22:03:31.176Z,21.90
2018-07-17T22:05:59.336Z,22.00
2018-07-17T22:08:27.464Z,22.00
2018-07-17T22:10:55.698Z,22.10
2018-07-17T22:13:23.859Z,22.20
2018-07-17T22:15:52.081Z,22.30
2018-07-17T22:18:21.040Z,22.20
2018-07-17T22:20:49.189Z,22.20
2018-07-17T22:25:45.250Z,22.10
2018-07-17T22:28:13.430Z,22.20
2018-07-17T22:30:41.677Z,22.00
2018-07-17T22:33:09.890Z,22.00
2018-07-17T22:35:38.043Z,22.00
2018-07-17T22:38:06.208Z,22.00
2018-07-17T22:40:34.337Z,21.90
2018-07-17T22:43:02.428Z,21.90
2018-07-17T22:45:30.620Z,21.80
2018-07-17T22:47:58.711Z,21.70
2018-07-17T22:50:26.909Z,21.60
2018-07-17T22:52:55.010Z,21.50
2018-07-17T22:55:23.108Z,21.40
2018-07-17T22:57:51.210Z,21.30
2018-07-17T23:00:19.305Z,21.10
2018-07-17T23:02:47.452Z,21.00
2018-07-17T23:05:15.581Z,20.90
2018-07-17T23:10:11.580Z,20.80
2018-07-17T23:12:39.681Z,20.70
2018-07-17T23:15:07.882Z,20.80
2018-07-17T23:17:36.006Z,20.70
2018-07-17T23:20:04.227Z,20.70
2018-07-17T23:22:43.724Z,20.70
2018-07-17T23:25:11.976Z,20.70
2018-07-17T23:27:40.041Z,20.60
2018-07-17T23:30:08.147Z,20.60
2018-07-17T23:32:36.518Z,20.50
2018-07-17T23:35:04.619Z,20.40
2018-07-17T23:37:32.716Z,20.30
2018-07-17T23:40:01.838Z,20.20
2018-07-17T23:42:29.983Z,20.10
2018-07-17T23:44:58.056Z,20.00
2018-07-17T23:47:26.150Z,20.00
2018-07-17T23:49:54.307Z,19.90
2018-07-17T23:52:23.425Z,19.80
2018-07-17T23:54:52.590Z,19.70
2018-07-17T23:57:20.668Z,19.70
2018-07-17T23:59:48.887Z,19.60
